sensor_id;sensor_type;location;lat;lon;timestamp;P1;durP1;ratioP1;P2;durP2;ratioP2
20232;SDS011;37438;55.674;13.074;2022-07-25T00:03:03;2.58;;;1.83;;
20232;SDS011;37438;55.674;13.074;2022-07-25T00:06:12;4.57;;;1.63;;
20232;SDS011;37438;55.674;13.074;2022-07-25T00:09:20;2.42;;;1.85;;
20232;SDS011;37438;55.674;13.074;2022-07-25T00:12:25;10.38;;;2.38;;
20232;SDS011;37438;55.674;13.074;2022-07-25T00:15:30;2.10;;;1.52;;
20232;SDS011;37438;55.674;13.074;2022-07-25T00:21:39;3.17;;;1.73;;
20232;SDS011;37438;55.674;13.074;2022-07-25T00:24:43;4.90;;;1.95;;
20232;SDS011;37438;55.674;13.074;2022-07-25T00:30:53;5.25;;;2.20;;
20232;SDS011;37438;55.674;13.074;2022-07-25T00:33:57;3.97;;;1.90;;
20232;SDS011;37438;55.674;13.074;2022-07-25T00:37:02;11.43;;;2.38;;
20232;SDS011;37438;55.674;13.074;2022-07-25T00:40:06;3.47;;;2.13;;
20232;SDS011;37438;55.674;13.074;2022-07-25T00:43:11;2.33;;;1.70;;
20232;SDS011;37438;55.674;13.074;2022-07-25T00:46:16;6.38;;;2.47;;
20232;SDS011;37438;55.674;13.074;2022-07-25T00:49:23;3.97;;;2.63;;
20232;SDS011;37438;55.674;13.074;2022-07-25T00:52:28;3.72;;;2.13;;
20232;SDS011;37438;55.674;13.074;2022-07-25T00:55:33;5.03;;;2.25;;
20232;SDS011;37438;55.674;13.074;2022-07-25T00:58:38;9.55;;;2.83;;
20232;SDS011;37438;55.674;13.074;2022-07-25T01:01:42;6.82;;;2.25;;
20232;SDS011;37438;55.674;13.074;2022-07-25T01:04:48;3.35;;;2.00;;
20232;SDS011;37438;55.674;13.074;2022-07-25T01:10:57;5.38;;;2.38;;
20232;SDS011;37438;55.674;13.074;2022-07-25T01:14:01;6.30;;;2.08;;
20232;SDS011;37438;55.674;13.074;2022-07-25T01:17:07;7.47;;;2.80;;
20232;SDS011;37438;55.674;13.074;2022-07-25T01:20:18;5.50;;;3.05;;
20232;SDS011;37438;55.674;13.074;2022-07-25T01:23:27;4.47;;;2.70;;
20232;SDS011;37438;55.674;13.074;2022-07-25T01:26:31;7.50;;;3.25;;
20232;SDS011;37438;55.674;13.074;2022-07-25T01:29:35;10.10;;;2.97;;
20232;SDS011;37438;55.674;13.074;2022-07-25T01:35:45;4.68;;;2.72;;
20232;SDS011;37438;55.674;13.074;2022-07-25T01:38:50;5.25;;;2.30;;
20232;SDS011;37438;55.674;13.074;2022-07-25T01:41:56;2.65;;;2.20;;
20232;SDS011;37438;55.674;13.074;2022-07-25T01:45:01;13.73;;;3.50;;
20232;SDS011;37438;55.674;13.074;2022-07-25T01:48:06;5.07;;;3.65;;
20232;SDS011;37438;55.674;13.074;2022-07-25T01:51:12;7.07;;;1.98;;
20232;SDS011;37438;55.674;13.074;2022-07-25T01:54:17;5.22;;;2.13;;
20232;SDS011;37438;55.674;13.074;2022-07-25T01:57:22;4.03;;;2.70;;
20232;SDS011;37438;55.674;13.074;2022-07-25T02:00:34;7.55;;;2.92;;
20232;SDS011;37438;55.674;13.074;2022-07-25T02:03:38;6.93;;;3.30;;
20232;SDS011;37438;55.674;13.074;2022-07-25T02:06:43;12.30;;;2.63;;
20232;SDS011;37438;55.674;13.074;2022-07-25T02:09:47;5.18;;;2.17;;
20232;SDS011;37438;55.674;13.074;2022-07-25T02:12:59;6.70;;;2.10;;
20232;SDS011;37438;55.674;13.074;2022-07-25T02:16:05;13.07;;;2.60;;
20232;SDS011;37438;55.674;13.074;2022-07-25T02:19:09;8.05;;;2.40;;
20232;SDS011;37438;55.674;13.074;2022-07-25T02:25:18;5.50;;;2.00;;
20232;SDS011;37438;55.674;13.074;2022-07-25T02:28:23;6.65;;;2.13;;
20232;SDS011;37438;55.674;13.074;2022-07-25T02:31:27;3.00;;;2.22;;
20232;SDS011;37438;55.674;13.074;2022-07-25T02:34:31;4.32;;;1.80;;
20232;SDS011;37438;55.674;13.074;2022-07-25T02:37:36;3.58;;;2.38;;
20232;SDS011;37438;55.674;13.074;2022-07-25T02:40:40;8.90;;;2.45;;
20232;SDS011;37438;55.674;13.074;2022-07-25T02:43:44;4.57;;;2.10;;
20232;SDS011;37438;55.674;13.074;2022-07-25T02:49:53;9.37;;;3.20;;
20232;SDS011;37438;55.674;13.074;2022-07-25T02:52:58;6.15;;;2.28;;
20232;SDS011;37438;55.674;13.074;2022-07-25T02:59:08;6.18;;;2.30;;
20232;SDS011;37438;55.674;13.074;2022-07-25T03:02:12;6.53;;;2.72;;
20232;SDS011;37438;55.674;13.074;2022-07-25T03:05:17;10.50;;;2.83;;
20232;SDS011;37438;55.674;13.074;2022-07-25T03:08:21;3.92;;;1.90;;
20232;SDS011;37438;55.674;13.074;2022-07-25T03:11:26;8.27;;;2.83;;
20232;SDS011;37438;55.674;13.074;2022-07-25T03:17:35;5.63;;;2.40;;
20232;SDS011;37438;55.674;13.074;2022-07-25T03:23:44;8.43;;;2.13;;
20232;SDS011;37438;55.674;13.074;2022-07-25T03:26:55;13.75;;;3.10;;
20232;SDS011;37438;55.674;13.074;2022-07-25T03:33:04;4.68;;;2.10;;
20232;SDS011;37438;55.674;13.074;2022-07-25T03:36:08;2.55;;;2.13;;
20232;SDS011;37438;55.674;13.074;2022-07-25T03:39:13;3.50;;;2.50;;
20232;SDS011;37438;55.674;13.074;2022-07-25T03:42:17;11.68;;;3.65;;
20232;SDS011;37438;55.674;13.074;2022-07-25T03:45:29;11.43;;;2.33;;
20232;SDS011;37438;55.674;13.074;2022-07-25T03:48:33;15.73;;;3.38;;
20232;SDS011;37438;55.674;13.074;2022-07-25T03:51:38;8.80;;;2.63;;
20232;SDS011;37438;55.674;13.074;2022-07-25T03:54:43;21.63;;;3.55;;
20232;SDS011;37438;55.674;13.074;2022-07-25T03:57:47;14.93;;;3.38;;
20232;SDS011;37438;55.674;13.074;2022-07-25T04:00:51;7.40;;;2.58;;
20232;SDS011;37438;55.674;13.074;2022-07-25T04:03:57;8.40;;;2.53;;
20232;SDS011;37438;55.674;13.074;2022-07-25T04:07:02;9.15;;;3.05;;
20232;SDS011;37438;55.674;13.074;2022-07-25T04:13:10;9.95;;;2.78;;
20232;SDS011;37438;55.674;13.074;2022-07-25T04:16:15;8.80;;;2.40;;
20232;SDS011;37438;55.674;13.074;2022-07-25T04:19:25;5.93;;;2.05;;
20232;SDS011;37438;55.674;13.074;2022-07-25T04:22:31;7.45;;;2.55;;
20232;SDS011;37438;55.674;13.074;2022-07-25T04:25:36;13.52;;;2.90;;
20232;SDS011;37438;55.674;13.074;2022-07-25T04:28:41;9.23;;;2.10;;
20232;SDS011;37438;55.674;13.074;2022-07-25T04:31:46;6.82;;;2.28;;
20232;SDS011;37438;55.674;13.074;2022-07-25T04:37:54;9.35;;;2.60;;
20232;SDS011;37438;55.674;13.074;2022-07-25T04:40:59;3.78;;;2.03;;
20232;SDS011;37438;55.674;13.074;2022-07-25T04:47:10;3.60;;;1.55;;
20232;SDS011;37438;55.674;13.074;2022-07-25T04:50:16;12.68;;;2.58;;
20232;SDS011;37438;55.674;13.074;2022-07-25T04:53:27;4.55;;;1.98;;
20232;SDS011;37438;55.674;13.074;2022-07-25T04:56:31;8.75;;;1.67;;
20232;SDS011;37438;55.674;13.074;2022-07-25T04:59:36;3.70;;;2.55;;
20232;SDS011;37438;55.674;13.074;2022-07-25T05:02:41;8.20;;;2.33;;
20232;SDS011;37438;55.674;13.074;2022-07-25T05:05:46;3.70;;;2.25;;
20232;SDS011;37438;55.674;13.074;2022-07-25T05:11:55;2.75;;;2.00;;
20232;SDS011;37438;55.674;13.074;2022-07-25T05:14:59;2.08;;;1.90;;
20232;SDS011;37438;55.674;13.074;2022-07-25T05:18:04;4.13;;;1.58;;
20232;SDS011;37438;55.674;13.074;2022-07-25T05:21:08;2.55;;;1.60;;
20232;SDS011;37438;55.674;13.074;2022-07-25T05:24:14;2.55;;;1.55;;
20232;SDS011;37438;55.674;13.074;2022-07-25T05:27:18;3.67;;;1.73;;
20232;SDS011;37438;55.674;13.074;2022-07-25T05:30:23;7.82;;;1.67;;
20232;SDS011;37438;55.674;13.074;2022-07-25T05:33:27;2.83;;;1.85;;
20232;SDS011;37438;55.674;13.074;2022-07-25T05:36:32;5.68;;;2.30;;
20232;SDS011;37438;55.674;13.074;2022-07-25T05:39:36;2.90;;;1.30;;
20232;SDS011;37438;55.674;13.074;2022-07-25T05:42:42;1.40;;;1.30;;
20232;SDS011;37438;55.674;13.074;2022-07-25T05:45:47;4.47;;;1.63;;
20232;SDS011;37438;55.674;13.074;2022-07-25T05:48:51;1.30;;;1.17;;
20232;SDS011;37438;55.674;13.074;2022-07-25T05:51:56;5.32;;;1.80;;
20232;SDS011;37438;55.674;13.074;2022-07-25T05:55:01;3.60;;;1.60;;
20232;SDS011;37438;55.674;13.074;2022-07-25T05:58:05;4.63;;;1.75;;
20232;SDS011;37438;55.674;13.074;2022-07-25T06:01:13;3.40;;;1.60;;
20232;SDS011;37438;55.674;13.074;2022-07-25T06:04:18;1.55;;;1.40;;
20232;SDS011;37438;55.674;13.074;2022-07-25T06:07:29;4.50;;;1.30;;
20232;SDS011;37438;55.674;13.074;2022-07-25T06:10:34;1.85;;;1.33;;
20232;SDS011;37438;55.674;13.074;2022-07-25T06:13:39;1.08;;;1.05;;
20232;SDS011;37438;55.674;13.074;2022-07-25T06:16:44;10.23;;;1.10;;
20232;SDS011;37438;55.674;13.074;2022-07-25T06:19:48;2.08;;;1.17;;
20232;SDS011;37438;55.674;13.074;2022-07-25T06:22:53;1.88;;;1.17;;
20232;SDS011;37438;55.674;13.074;2022-07-25T06:25:57;1.42;;;1.30;;
20232;SDS011;37438;55.674;13.074;2022-07-25T06:29:01;4.57;;;1.63;;
20232;SDS011;37438;55.674;13.074;2022-07-25T06:32:06;2.05;;;1.42;;
20232;SDS011;37438;55.674;13.074;2022-07-25T06:35:10;7.63;;;1.40;;
20232;SDS011;37438;55.674;13.074;2022-07-25T06:38:15;1.35;;;0.90;;
20232;SDS011;37438;55.674;13.074;2022-07-25T06:41:20;1.23;;;1.13;;
20232;SDS011;37438;55.674;13.074;2022-07-25T06:44:24;4.68;;;1.20;;
20232;SDS011;37438;55.674;13.074;2022-07-25T06:47:29;1.48;;;0.80;;
20232;SDS011;37438;55.674;13.074;2022-07-25T06:50:38;1.60;;;1.00;;
20232;SDS011;37438;55.674;13.074;2022-07-25T06:53:43;1.13;;;1.00;;
20232;SDS011;37438;55.674;13.074;2022-07-25T06:56:48;3.88;;;1.08;;
20232;SDS011;37438;55.674;13.074;2022-07-25T06:59:52;4.25;;;1.10;;
20232;SDS011;37438;55.674;13.074;2022-07-25T07:02:57;5.28;;;3.55;;
20232;SDS011;37438;55.674;13.074;2022-07-25T07:06:04;0.80;;;0.70;;
20232;SDS011;37438;55.674;13.074;2022-07-25T07:09:10;4.18;;;1.58;;
20232;SDS011;37438;55.674;13.074;2022-07-25T07:12:14;0.73;;;0.52;;
20232;SDS011;37438;55.674;13.074;2022-07-25T07:15:19;0.88;;;0.60;;
20232;SDS011;37438;55.674;13.074;2022-07-25T07:18:24;1.20;;;0.95;;
20232;SDS011;37438;55.674;13.074;2022-07-25T07:21:28;1.48;;;0.75;;
20232;SDS011;37438;55.674;13.074;2022-07-25T07:24:33;5.88;;;1.17;;
20232;SDS011;37438;55.674;13.074;2022-07-25T07:27:47;1.33;;;0.77;;
20232;SDS011;37438;55.674;13.074;2022-07-25T07:30:51;5.65;;;1.30;;
20232;SDS011;37438;55.674;13.074;2022-07-25T07:34:16;3.90;;;0.95;;
20232;SDS011;37438;55.674;13.074;2022-07-25T07:37:20;1.25;;;0.80;;
20232;SDS011;37438;55.674;13.074;2022-07-25T07:40:25;4.43;;;0.98;;
20232;SDS011;37438;55.674;13.074;2022-07-25T07:43:30;2.00;;;0.70;;
20232;SDS011;37438;55.674;13.074;2022-07-25T07:46:34;7.25;;;0.85;;
20232;SDS011;37438;55.674;13.074;2022-07-25T07:49:39;1.35;;;0.80;;
20232;SDS011;37438;55.674;13.074;2022-07-25T07:52:43;1.90;;;1.08;;
20232;SDS011;37438;55.674;13.074;2022-07-25T07:55:48;4.80;;;1.33;;
20232;SDS011;37438;55.674;13.074;2022-07-25T07:58:58;4.65;;;1.30;;
20232;SDS011;37438;55.674;13.074;2022-07-25T08:02:02;5.28;;;1.00;;
20232;SDS011;37438;55.674;13.074;2022-07-25T08:05:07;7.22;;;1.88;;
20232;SDS011;37438;55.674;13.074;2022-07-25T08:08:13;0.88;;;0.70;;
20232;SDS011;37438;55.674;13.074;2022-07-25T08:11:18;9.30;;;1.98;;
20232;SDS011;37438;55.674;13.074;2022-07-25T08:14:23;7.85;;;1.70;;
20232;SDS011;37438;55.674;13.074;2022-07-25T08:17:28;1.77;;;0.73;;
20232;SDS011;37438;55.674;13.074;2022-07-25T08:20:32;0.55;;;0.52;;
20232;SDS011;37438;55.674;13.074;2022-07-25T08:23:41;0.90;;;0.75;;
20232;SDS011;37438;55.674;13.074;2022-07-25T08:26:49;1.65;;;0.70;;
20232;SDS011;37438;55.674;13.074;2022-07-25T08:29:54;0.90;;;0.90;;
20232;SDS011;37438;55.674;13.074;2022-07-25T08:32:59;3.25;;;1.10;;
20232;SDS011;37438;55.674;13.074;2022-07-25T08:36:06;2.33;;;1.00;;
20232;SDS011;37438;55.674;13.074;2022-07-25T08:39:13;2.78;;;1.00;;
20232;SDS011;37438;55.674;13.074;2022-07-25T08:42:18;2.55;;;1.00;;
20232;SDS011;37438;55.674;13.074;2022-07-25T08:45:24;2.97;;;0.75;;
20232;SDS011;37438;55.674;13.074;2022-07-25T08:48:30;3.72;;;1.20;;
20232;SDS011;37438;55.674;13.074;2022-07-25T08:51:35;2.70;;;1.15;;
20232;SDS011;37438;55.674;13.074;2022-07-25T08:54:40;2.92;;;0.98;;
20232;SDS011;37438;55.674;13.074;2022-07-25T08:57:45;3.13;;;1.10;;
20232;SDS011;37438;55.674;13.074;2022-07-25T09:00:51;2.45;;;0.68;;
20232;SDS011;37438;55.674;13.074;2022-07-25T09:03:55;4.38;;;1.30;;
20232;SDS011;37438;55.674;13.074;2022-07-25T09:07:00;3.47;;;0.93;;
20232;SDS011;37438;55.674;13.074;2022-07-25T09:13:29;9.63;;;1.45;;
20232;SDS011;37438;55.674;13.074;2022-07-25T09:16:42;5.15;;;0.95;;
20232;SDS011;37438;55.674;13.074;2022-07-25T09:19:52;0.80;;;0.80;;
20232;SDS011;37438;55.674;13.074;2022-07-25T09:22:57;2.17;;;1.15;;
20232;SDS011;37438;55.674;13.074;2022-07-25T09:26:03;1.65;;;1.00;;
20232;SDS011;37438;55.674;13.074;2022-07-25T09:29:15;2.30;;;0.82;;
20232;SDS011;37438;55.674;13.074;2022-07-25T09:32:41;4.75;;;0.88;;
20232;SDS011;37438;55.674;13.074;2022-07-25T09:35:45;3.58;;;1.20;;
20232;SDS011;37438;55.674;13.074;2022-07-25T09:38:53;1.60;;;1.15;;
20232;SDS011;37438;55.674;13.074;2022-07-25T09:41:59;5.88;;;0.93;;
20232;SDS011;37438;55.674;13.074;2022-07-25T09:48:16;3.03;;;1.00;;
20232;SDS011;37438;55.674;13.074;2022-07-25T09:51:26;0.73;;;0.60;;
20232;SDS011;37438;55.674;13.074;2022-07-25T09:54:31;0.73;;;0.60;;
20232;SDS011;37438;55.674;13.074;2022-07-25T09:57:37;2.05;;;0.93;;
20232;SDS011;37438;55.674;13.074;2022-07-25T10:00:41;2.65;;;1.00;;
20232;SDS011;37438;55.674;13.074;2022-07-25T10:03:49;3.42;;;0.80;;
20232;SDS011;37438;55.674;13.074;2022-07-25T10:07:01;2.85;;;0.73;;
20232;SDS011;37438;55.674;13.074;2022-07-25T10:10:58;1.60;;;1.30;;
20232;SDS011;37438;55.674;13.074;2022-07-25T10:13:41;1.48;;;1.02;;
20232;SDS011;37438;55.674;13.074;2022-07-25T10:16:46;1.77;;;1.10;;
20232;SDS011;37438;55.674;13.074;2022-07-25T10:19:51;1.40;;;1.08;;
20232;SDS011;37438;55.674;13.074;2022-07-25T10:23:01;2.15;;;0.82;;
20232;SDS011;37438;55.674;13.074;2022-07-25T10:26:19;2.75;;;0.90;;
20232;SDS011;37438;55.674;13.074;2022-07-25T10:29:31;3.30;;;1.15;;
20232;SDS011;37438;55.674;13.074;2022-07-25T10:35:51;5.88;;;1.65;;
20232;SDS011;37438;55.674;13.074;2022-07-25T10:38:57;2.08;;;0.65;;
20232;SDS011;37438;55.674;13.074;2022-07-25T10:42:03;2.33;;;1.00;;
20232;SDS011;37438;55.674;13.074;2022-07-25T10:45:08;1.73;;;0.50;;
20232;SDS011;37438;55.674;13.074;2022-07-25T10:48:38;4.50;;;0.95;;
20232;SDS011;37438;55.674;13.074;2022-07-25T10:51:50;5.93;;;0.77;;
20232;SDS011;37438;55.674;13.074;2022-07-25T10:55:00;0.80;;;0.75;;
20232;SDS011;37438;55.674;13.074;2022-07-25T10:58:04;3.03;;;1.35;;
20232;SDS011;37438;55.674;13.074;2022-07-25T11:01:28;5.68;;;1.25;;
20232;SDS011;37438;55.674;13.074;2022-07-25T11:04:34;6.40;;;1.10;;
20232;SDS011;37438;55.674;13.074;2022-07-25T11:07:48;0.70;;;0.70;;
20232;SDS011;37438;55.674;13.074;2022-07-25T11:11:15;2.78;;;0.95;;
20232;SDS011;37438;55.674;13.074;2022-07-25T11:14:20;2.38;;;0.73;;
20232;SDS011;37438;55.674;13.074;2022-07-25T11:17:51;2.08;;;0.90;;
20232;SDS011;37438;55.674;13.074;2022-07-25T11:20:57;3.95;;;0.82;;
20232;SDS011;37438;55.674;13.074;2022-07-25T11:24:09;1.40;;;0.60;;
20232;SDS011;37438;55.674;13.074;2022-07-25T11:27:23;2.38;;;0.68;;
20232;SDS011;37438;55.674;13.074;2022-07-25T11:30:30;3.72;;;1.13;;
20232;SDS011;37438;55.674;13.074;2022-07-25T11:33:35;5.88;;;1.45;;
20232;SDS011;37438;55.674;13.074;2022-07-25T11:36:41;3.70;;;1.55;;
20232;SDS011;37438;55.674;13.074;2022-07-25T11:39:46;6.93;;;1.15;;
20232;SDS011;37438;55.674;13.074;2022-07-25T11:42:53;2.50;;;0.95;;
20232;SDS011;37438;55.674;13.074;2022-07-25T11:46:00;9.75;;;1.10;;
20232;SDS011;37438;55.674;13.074;2022-07-25T11:49:06;0.70;;;0.50;;
20232;SDS011;37438;55.674;13.074;2022-07-25T11:55:28;1.88;;;1.13;;
20232;SDS011;37438;55.674;13.074;2022-07-25T11:58:33;1.65;;;0.80;;
20232;SDS011;37438;55.674;13.074;2022-07-25T12:01:39;3.55;;;0.90;;
20232;SDS011;37438;55.674;13.074;2022-07-25T12:04:52;2.35;;;1.13;;
20232;SDS011;37438;55.674;13.074;2022-07-25T12:08:18;5.72;;;1.00;;
20232;SDS011;37438;55.674;13.074;2022-07-25T12:11:25;4.32;;;1.00;;
20232;SDS011;37438;55.674;13.074;2022-07-25T12:14:29;0.75;;;0.70;;
20232;SDS011;37438;55.674;13.074;2022-07-25T12:17:38;4.05;;;1.10;;
20232;SDS011;37438;55.674;13.074;2022-07-25T12:20:44;6.05;;;1.15;;
20232;SDS011;37438;55.674;13.074;2022-07-25T12:23:48;2.83;;;0.98;;
20232;SDS011;37438;55.674;13.074;2022-07-25T12:26:53;6.40;;;1.17;;
20232;SDS011;37438;55.674;13.074;2022-07-25T12:29:57;4.85;;;0.93;;
20232;SDS011;37438;55.674;13.074;2022-07-25T12:33:02;1.85;;;0.95;;
20232;SDS011;37438;55.674;13.074;2022-07-25T12:36:06;1.55;;;0.77;;
20232;SDS011;37438;55.674;13.074;2022-07-25T12:39:15;2.05;;;0.90;;
20232;SDS011;37438;55.674;13.074;2022-07-25T12:42:20;1.70;;;1.20;;
20232;SDS011;37438;55.674;13.074;2022-07-25T12:45:24;6.78;;;1.30;;
20232;SDS011;37438;55.674;13.074;2022-07-25T12:48:29;1.20;;;1.10;;
20232;SDS011;37438;55.674;13.074;2022-07-25T12:51:33;4.40;;;0.90;;
20232;SDS011;37438;55.674;13.074;2022-07-25T12:54:38;0.70;;;0.70;;
20232;SDS011;37438;55.674;13.074;2022-07-25T12:57:42;1.83;;;0.95;;
20232;SDS011;37438;55.674;13.074;2022-07-25T13:00:47;1.33;;;1.10;;
20232;SDS011;37438;55.674;13.074;2022-07-25T13:03:52;2.63;;;0.95;;
20232;SDS011;37438;55.674;13.074;2022-07-25T13:06:56;1.70;;;1.13;;
20232;SDS011;37438;55.674;13.074;2022-07-25T13:10:02;2.95;;;0.82;;
20232;SDS011;37438;55.674;13.074;2022-07-25T13:13:07;2.17;;;1.20;;
20232;SDS011;37438;55.674;13.074;2022-07-25T13:16:12;4.20;;;0.90;;
20232;SDS011;37438;55.674;13.074;2022-07-25T13:19:16;4.40;;;0.93;;
20232;SDS011;37438;55.674;13.074;2022-07-25T13:22:20;6.07;;;1.52;;
20232;SDS011;37438;55.674;13.074;2022-07-25T13:25:25;4.70;;;1.40;;
20232;SDS011;37438;55.674;13.074;2022-07-25T13:28:29;2.33;;;1.30;;
20232;SDS011;37438;55.674;13.074;2022-07-25T13:31:34;2.00;;;1.20;;
20232;SDS011;37438;55.674;13.074;2022-07-25T13:34:44;9.20;;;2.15;;
20232;SDS011;37438;55.674;13.074;2022-07-25T13:37:48;7.88;;;1.70;;
20232;SDS011;37438;55.674;13.074;2022-07-25T13:40:53;5.10;;;1.67;;
20232;SDS011;37438;55.674;13.074;2022-07-25T13:44:02;2.88;;;1.45;;
20232;SDS011;37438;55.674;13.074;2022-07-25T13:47:06;2.15;;;1.38;;
20232;SDS011;37438;55.674;13.074;2022-07-25T13:50:10;8.32;;;1.20;;
20232;SDS011;37438;55.674;13.074;2022-07-25T13:53:15;2.55;;;1.27;;
20232;SDS011;37438;55.674;13.074;2022-07-25T13:56:20;2.63;;;1.38;;
20232;SDS011;37438;55.674;13.074;2022-07-25T13:59:24;1.27;;;1.10;;
20232;SDS011;37438;55.674;13.074;2022-07-25T14:02:29;1.85;;;1.00;;
20232;SDS011;37438;55.674;13.074;2022-07-25T14:05:33;6.38;;;1.73;;
20232;SDS011;37438;55.674;13.074;2022-07-25T14:08:38;6.20;;;2.15;;
20232;SDS011;37438;55.674;13.074;2022-07-25T14:11:43;3.50;;;1.35;;
20232;SDS011;37438;55.674;13.074;2022-07-25T14:14:48;6.10;;;1.83;;
20232;SDS011;37438;55.674;13.074;2022-07-25T14:17:52;2.72;;;1.60;;
20232;SDS011;37438;55.674;13.074;2022-07-25T14:20:57;5.03;;;2.00;;
20232;SDS011;37438;55.674;13.074;2022-07-25T14:24:02;6.93;;;2.40;;
20232;SDS011;37438;55.674;13.074;2022-07-25T14:27:07;6.47;;;2.45;;
20232;SDS011;37438;55.674;13.074;2022-07-25T14:30:13;1.65;;;1.38;;
20232;SDS011;37438;55.674;13.074;2022-07-25T14:33:18;4.35;;;1.48;;
20232;SDS011;37438;55.674;13.074;2022-07-25T14:36:22;4.82;;;1.75;;
20232;SDS011;37438;55.674;13.074;2022-07-25T14:39:27;7.25;;;1.50;;
20232;SDS011;37438;55.674;13.074;2022-07-25T14:42:32;2.33;;;1.65;;
20232;SDS011;37438;55.674;13.074;2022-07-25T14:45:36;1.50;;;1.40;;
20232;SDS011;37438;55.674;13.074;2022-07-25T14:48:40;4.57;;;1.65;;
20232;SDS011;37438;55.674;13.074;2022-07-25T14:51:45;7.80;;;2.47;;
20232;SDS011;37438;55.674;13.074;2022-07-25T14:54:50;12.02;;;2.53;;
20232;SDS011;37438;55.674;13.074;2022-07-25T14:57:54;4.63;;;1.45;;
20232;SDS011;37438;55.674;13.074;2022-07-25T15:01:00;10.15;;;1.88;;
20232;SDS011;37438;55.674;13.074;2022-07-25T15:04:05;3.97;;;1.70;;
20232;SDS011;37438;55.674;13.074;2022-07-25T15:07:09;11.00;;;2.22;;
20232;SDS011;37438;55.674;13.074;2022-07-25T15:10:14;3.25;;;1.70;;
20232;SDS011;37438;55.674;13.074;2022-07-25T15:13:18;3.90;;;2.03;;
20232;SDS011;37438;55.674;13.074;2022-07-25T15:16:34;5.88;;;2.08;;
20232;SDS011;37438;55.674;13.074;2022-07-25T15:19:40;15.50;;;2.13;;
20232;SDS011;37438;55.674;13.074;2022-07-25T15:22:44;6.03;;;1.92;;
20232;SDS011;37438;55.674;13.074;2022-07-25T15:25:49;2.97;;;2.60;;
20232;SDS011;37438;55.674;13.074;2022-07-25T15:29:05;5.05;;;2.33;;
20232;SDS011;37438;55.674;13.074;2022-07-25T15:32:12;6.50;;;2.42;;
20232;SDS011;37438;55.674;13.074;2022-07-25T15:35:17;3.67;;;2.00;;
20232;SDS011;37438;55.674;13.074;2022-07-25T15:38:22;4.20;;;1.67;;
20232;SDS011;37438;55.674;13.074;2022-07-25T15:41:26;4.90;;;2.30;;
20232;SDS011;37438;55.674;13.074;2022-07-25T15:44:31;2.83;;;1.92;;
20232;SDS011;37438;55.674;13.074;2022-07-25T15:47:35;4.00;;;1.92;;
20232;SDS011;37438;55.674;13.074;2022-07-25T15:50:42;9.18;;;2.00;;
20232;SDS011;37438;55.674;13.074;2022-07-25T15:53:49;5.70;;;1.80;;
20232;SDS011;37438;55.674;13.074;2022-07-25T15:56:53;7.60;;;2.70;;
20232;SDS011;37438;55.674;13.074;2022-07-25T15:59:58;5.43;;;2.13;;
20232;SDS011;37438;55.674;13.074;2022-07-25T16:03:03;4.38;;;2.05;;
20232;SDS011;37438;55.674;13.074;2022-07-25T16:06:08;2.28;;;1.88;;
20232;SDS011;37438;55.674;13.074;2022-07-25T16:09:13;3.72;;;2.15;;
20232;SDS011;37438;55.674;13.074;2022-07-25T16:12:18;9.73;;;2.35;;
20232;SDS011;37438;55.674;13.074;2022-07-25T16:15:31;7.30;;;2.53;;
20232;SDS011;37438;55.674;13.074;2022-07-25T16:18:36;27.60;;;2.33;;
20232;SDS011;37438;55.674;13.074;2022-07-25T16:21:40;4.28;;;2.47;;
20232;SDS011;37438;55.674;13.074;2022-07-25T16:24:45;15.65;;;2.65;;
20232;SDS011;37438;55.674;13.074;2022-07-25T16:27:50;2.22;;;1.85;;
20232;SDS011;37438;55.674;13.074;2022-07-25T16:30:55;12.35;;;2.83;;
20232;SDS011;37438;55.674;13.074;2022-07-25T16:34:00;2.63;;;2.15;;
20232;SDS011;37438;55.674;13.074;2022-07-25T16:37:05;5.93;;;2.58;;
20232;SDS011;37438;55.674;13.074;2022-07-25T16:40:09;15.65;;;2.85;;
20232;SDS011;37438;55.674;13.074;2022-07-25T16:43:15;19.00;;;4.75;;
20232;SDS011;37438;55.674;13.074;2022-07-25T16:46:20;18.00;;;6.22;;
20232;SDS011;37438;55.674;13.074;2022-07-25T16:49:31;17.85;;;5.47;;
20232;SDS011;37438;55.674;13.074;2022-07-25T16:52:35;16.90;;;5.03;;
20232;SDS011;37438;55.674;13.074;2022-07-25T16:55:40;19.02;;;5.97;;
20232;SDS011;37438;55.674;13.074;2022-07-25T16:58:44;20.30;;;5.88;;
20232;SDS011;37438;55.674;13.074;2022-07-25T17:01:49;19.38;;;6.85;;
20232;SDS011;37438;55.674;13.074;2022-07-25T17:04:54;21.60;;;7.22;;
20232;SDS011;37438;55.674;13.074;2022-07-25T17:07:58;14.77;;;6.95;;
20232;SDS011;37438;55.674;13.074;2022-07-25T17:11:03;22.13;;;8.27;;
20232;SDS011;37438;55.674;13.074;2022-07-25T17:14:08;18.88;;;6.45;;
20232;SDS011;37438;55.674;13.074;2022-07-25T17:17:12;17.80;;;6.45;;
20232;SDS011;37438;55.674;13.074;2022-07-25T17:20:17;22.30;;;6.80;;
20232;SDS011;37438;55.674;13.074;2022-07-25T17:23:23;21.27;;;6.97;;
20232;SDS011;37438;55.674;13.074;2022-07-25T17:26:28;18.15;;;6.35;;
20232;SDS011;37438;55.674;13.074;2022-07-25T17:29:32;11.85;;;6.25;;
20232;SDS011;37438;55.674;13.074;2022-07-25T17:32:37;17.17;;;6.55;;
20232;SDS011;37438;55.674;13.074;2022-07-25T17:35:42;14.18;;;5.55;;
20232;SDS011;37438;55.674;13.074;2022-07-25T17:38:46;12.68;;;6.32;;
20232;SDS011;37438;55.674;13.074;2022-07-25T17:41:51;14.68;;;6.40;;
20232;SDS011;37438;55.674;13.074;2022-07-25T17:44:55;17.42;;;7.47;;
20232;SDS011;37438;55.674;13.074;2022-07-25T17:48:00;13.75;;;6.70;;
20232;SDS011;37438;55.674;13.074;2022-07-25T17:51:04;19.10;;;6.80;;
20232;SDS011;37438;55.674;13.074;2022-07-25T17:54:09;20.33;;;6.65;;
20232;SDS011;37438;55.674;13.074;2022-07-25T17:57:15;12.07;;;5.70;;
20232;SDS011;37438;55.674;13.074;2022-07-25T18:00:20;14.40;;;6.45;;
20232;SDS011;37438;55.674;13.074;2022-07-25T18:03:26;14.32;;;6.32;;
20232;SDS011;37438;55.674;13.074;2022-07-25T18:06:31;14.25;;;6.50;;
20232;SDS011;37438;55.674;13.074;2022-07-25T18:09:36;20.63;;;7.63;;
20232;SDS011;37438;55.674;13.074;2022-07-25T18:12:40;26.90;;;8.50;;
20232;SDS011;37438;55.674;13.074;2022-07-25T18:15:45;20.80;;;7.22;;
20232;SDS011;37438;55.674;13.074;2022-07-25T18:18:51;17.95;;;7.60;;
20232;SDS011;37438;55.674;13.074;2022-07-25T18:21:55;18.98;;;8.00;;
20232;SDS011;37438;55.674;13.074;2022-07-25T18:24:59;20.77;;;7.60;;
20232;SDS011;37438;55.674;13.074;2022-07-25T18:28:04;15.25;;;7.20;;
20232;SDS011;37438;55.674;13.074;2022-07-25T18:31:09;15.50;;;8.40;;
20232;SDS011;37438;55.674;13.074;2022-07-25T18:34:13;28.95;;;7.97;;
20232;SDS011;37438;55.674;13.074;2022-07-25T18:37:18;21.85;;;8.93;;
20232;SDS011;37438;55.674;13.074;2022-07-25T18:40:22;27.55;;;8.45;;
20232;SDS011;37438;55.674;13.074;2022-07-25T18:43:27;36.38;;;9.52;;
20232;SDS011;37438;55.674;13.074;2022-07-25T18:46:33;25.60;;;10.13;;
20232;SDS011;37438;55.674;13.074;2022-07-25T18:49:38;33.40;;;10.45;;
20232;SDS011;37438;55.674;13.074;2022-07-25T18:52:43;41.85;;;11.55;;
20232;SDS011;37438;55.674;13.074;2022-07-25T18:55:47;24.40;;;8.88;;
20232;SDS011;37438;55.674;13.074;2022-07-25T18:58:52;28.98;;;11.15;;
20232;SDS011;37438;55.674;13.074;2022-07-25T19:01:56;38.47;;;10.00;;
20232;SDS011;37438;55.674;13.074;2022-07-25T19:05:00;22.63;;;9.13;;
20232;SDS011;37438;55.674;13.074;2022-07-25T19:08:05;28.73;;;8.98;;
20232;SDS011;37438;55.674;13.074;2022-07-25T19:11:09;40.65;;;11.88;;
20232;SDS011;37438;55.674;13.074;2022-07-25T19:14:14;25.25;;;9.15;;
20232;SDS011;37438;55.674;13.074;2022-07-25T19:17:19;20.55;;;9.38;;